createdAt,value
2024-04-18T00:01:40.091Z,18.10
2024-04-18T00:04:11.802Z,18.30
2024-04-18T00:06:44.041Z,16.10
2024-04-18T00:09:16.252Z,18.30
2024-04-18T00:11:48.255Z,19.10
2024-04-18T00:14:19.807Z,17.60
2024-04-18T00:16:51.562Z,15.70
2024-04-18T00:19:23.012Z,14.10
2024-04-18T00:22:02.111Z,16.30
2024-04-18T00:24:33.884Z,16.90
2024-04-18T00:27:28.046Z,17.00
2024-04-18T00:29:59.771Z,17.20
2024-04-18T00:32:31.691Z,16.30
2024-04-18T00:35:21.731Z,17.30
2024-04-18T00:37:53.462Z,16.40
2024-04-18T00:40:45.710Z,13.80
2024-04-18T00:43:24.210Z,20.80
2024-04-18T00:45:59.768Z,18.00
2024-04-18T00:48:31.700Z,19.90
2024-04-18T00:51:05.294Z,17.70
2024-04-18T00:53:37.024Z,16.00
2024-04-18T00:56:38.606Z,18.20
2024-04-18T00:59:29.695Z,15.70
2024-04-18T01:02:21.956Z,15.20
2024-04-18T01:05:14.569Z,14.90
2024-04-18T01:07:49.145Z,17.10
2024-04-18T01:10:26.426Z,17.70
2024-04-18T01:13:02.270Z,21.00
2024-04-18T01:15:52.399Z,16.00
2024-04-18T01:18:25.428Z,15.40
2024-04-18T01:21:17.288Z,15.10
2024-04-18T01:23:48.973Z,15.90
2024-04-18T01:26:22.926Z,17.00
2024-04-18T01:28:54.648Z,18.00
2024-04-18T01:31:36.880Z,18.30
2024-04-18T01:34:08.705Z,16.20
2024-04-18T01:36:40.281Z,18.70
2024-04-18T01:39:31.744Z,17.60
2024-04-18T01:42:12.400Z,13.60
2024-04-18T01:44:47.912Z,17.10
2024-04-18T01:47:38.115Z,16.30
2024-04-18T01:50:12.691Z,16.30
2024-04-18T01:52:44.390Z,15.20
2024-04-18T01:55:16.930Z,15.90
2024-04-18T01:57:48.638Z,16.20
2024-04-18T02:00:37.869Z,18.00
2024-04-18T02:03:09.399Z,17.30
2024-04-18T02:05:47.508Z,16.30
2024-04-18T02:08:19.128Z,16.50
2024-04-18T02:10:52.117Z,15.70
2024-04-18T02:13:42.320Z,14.60
2024-04-18T02:16:13.907Z,13.10
2024-04-18T02:18:51.730Z,15.40
2024-04-18T02:21:23.442Z,15.20
2024-04-18T02:23:57.739Z,13.30
2024-04-18T02:26:29.432Z,15.30
2024-04-18T02:29:01.237Z,14.80
2024-04-18T02:31:33.089Z,14.30
2024-04-18T02:34:05.195Z,15.20
2024-04-18T02:36:52.319Z,16.70
2024-04-18T02:39:23.979Z,14.40
2024-04-18T02:41:55.495Z,15.00
2024-04-18T02:44:53.264Z,14.70
2024-04-18T02:47:24.764Z,13.70
2024-04-18T02:50:10.088Z,14.90
2024-04-18T02:52:41.746Z,11.70
2024-04-18T02:55:23.287Z,13.60
2024-04-18T02:58:00.996Z,15.60
2024-04-18T03:00:32.655Z,16.30
2024-04-18T03:03:13.047Z,15.70
2024-04-18T03:06:13.781Z,16.40
2024-04-18T03:08:46.825Z,15.70
2024-04-18T03:11:21.670Z,15.80
2024-04-18T03:14:12.119Z,13.80
2024-04-18T03:16:43.735Z,15.80
2024-04-18T03:19:24.616Z,11.50
2024-04-18T03:21:59.022Z,11.90
2024-04-18T03:24:30.831Z,13.40
2024-04-18T03:27:02.882Z,12.20
2024-04-18T03:29:35.189Z,10.10
2024-04-18T03:32:07.945Z,13.80
2024-04-18T03:34:51.153Z,11.20
2024-04-18T03:37:22.781Z,13.30
2024-04-18T03:39:54.469Z,13.10
2024-04-18T03:42:26.082Z,13.40
2024-04-18T03:44:58.280Z,12.90
2024-04-18T03:47:29.992Z,13.80
2024-04-18T03:50:14.058Z,13.80
2024-04-18T03:52:45.897Z,13.10
2024-04-18T03:55:36.099Z,14.10
2024-04-18T03:58:07.856Z,12.20
2024-04-18T04:00:54.322Z,12.00
2024-04-18T04:03:26.152Z,11.70
2024-04-18T04:05:57.821Z,11.40
2024-04-18T04:08:29.497Z,11.40
2024-04-18T04:11:33.014Z,12.30
2024-04-18T04:14:06.453Z,16.30
2024-04-18T04:16:57.788Z,18.50
2024-04-18T04:19:29.528Z,11.30
2024-04-18T04:22:01.682Z,13.80
2024-04-18T04:24:33.531Z,19.90
2024-04-18T04:27:25.243Z,14.50
2024-04-18T04:29:56.927Z,16.50
2024-04-18T04:32:28.577Z,29.10
2024-04-18T04:35:00.264Z,26.00
2024-04-18T04:37:31.825Z,21.50
2024-04-18T04:40:03.482Z,17.60
2024-04-18T04:42:36.482Z,23.80
2024-04-18T04:45:08.889Z,39.70
2024-04-18T04:47:40.486Z,95.30
2024-04-18T04:50:41.825Z,124.50
2024-04-18T04:53:18.909Z,125.20
2024-04-18T04:56:05.785Z,109.40
2024-04-18T04:58:37.736Z,90.50
2024-04-18T05:01:09.517Z,68.40
2024-04-18T05:03:41.567Z,56.10
2024-04-18T05:06:28.951Z,59.40
2024-04-18T05:09:21.534Z,32.90
2024-04-18T05:11:53.267Z,25.80
2024-04-18T05:14:40.178Z,20.70
2024-04-18T05:17:37.396Z,25.70
2024-04-18T05:20:17.982Z,24.70
2024-04-18T05:22:50.040Z,22.70
2024-04-18T05:25:21.623Z,17.00
2024-04-18T05:28:05.520Z,18.50
2024-04-18T05:30:58.781Z,19.10
2024-04-18T05:33:30.780Z,17.20
2024-04-18T05:36:03.229Z,22.50
2024-04-18T05:38:34.942Z,31.10
2024-04-18T05:41:07.024Z,23.10
2024-04-18T05:43:54.040Z,18.20
2024-04-18T05:46:25.708Z,14.50
2024-04-18T05:48:57.747Z,15.40
2024-04-18T05:51:29.774Z,15.60
2024-04-18T05:54:21.628Z,10.90
2024-04-18T05:57:11.405Z,12.80
2024-04-18T05:59:55.471Z,15.20
2024-04-18T06:02:27.513Z,13.00
2024-04-18T06:04:59.114Z,11.90
2024-04-18T06:07:49.350Z,14.60
2024-04-18T06:10:20.950Z,18.60
2024-04-18T06:12:52.745Z,12.90
2024-04-18T06:15:24.658Z,11.80
2024-04-18T06:17:56.475Z,11.70
2024-04-18T06:20:28.454Z,13.70
2024-04-18T06:23:00.243Z,14.30
2024-04-18T06:25:32.351Z,15.80
2024-04-18T06:28:04.319Z,16.20
2024-04-18T06:30:36.080Z,17.50
2024-04-18T06:33:08.210Z,13.50
2024-04-18T06:35:39.775Z,12.60
2024-04-18T06:38:11.436Z,24.40
2024-04-18T06:40:44.081Z,19.40
2024-04-18T06:43:15.949Z,15.50
2024-04-18T06:45:48.273Z,14.50
2024-04-18T06:48:20.018Z,15.40
2024-04-18T06:50:52.171Z,15.10
2024-04-18T06:53:23.936Z,15.60
2024-04-18T06:55:56.562Z,49.00
2024-04-18T06:58:28.325Z,21.60
2024-04-18T07:01:00.771Z,18.90
2024-04-18T07:03:33.265Z,18.80
2024-04-18T07:06:06.178Z,18.50
2024-04-18T07:08:37.958Z,31.20
2024-04-18T07:11:10.665Z,30.20
2024-04-18T07:13:42.306Z,24.90
2024-04-18T07:16:32.636Z,20.70
2024-04-18T07:19:24.404Z,20.00
2024-04-18T07:22:00.230Z,19.20
2024-04-18T07:24:52.009Z,37.30
2024-04-18T07:27:23.781Z,27.70
2024-04-18T07:29:55.611Z,23.40
2024-04-18T07:32:47.286Z,21.70
2024-04-18T07:35:19.298Z,23.80
2024-04-18T07:37:52.807Z,29.60
2024-04-18T07:40:24.959Z,16.70
2024-04-18T07:42:56.670Z,16.40
2024-04-18T07:45:29.779Z,21.10
2024-04-18T07:48:01.508Z,17.80
2024-04-18T07:50:33.078Z,18.40
2024-04-18T07:53:09.748Z,21.60
2024-04-18T07:55:44.316Z,15.80
2024-04-18T07:58:16.126Z,18.10
2024-04-18T08:00:53.936Z,18.90
2024-04-18T08:03:28.682Z,17.30
2024-04-18T08:08:35.348Z,18.40
2024-04-18T08:11:39.897Z,19.90
2024-04-18T08:14:05.176Z,17.60
2024-04-18T08:16:39.511Z,17.30
2024-04-18T08:19:11.294Z,16.20
2024-04-18T08:21:42.959Z,19.90
2024-04-18T08:24:22.735Z,19.60
2024-04-18T08:26:54.673Z,19.00
2024-04-18T08:29:27.970Z,15.70
2024-04-18T08:31:59.692Z,17.10
2024-04-18T08:34:35.479Z,17.50
2024-04-18T08:37:08.370Z,15.30
2024-04-18T08:39:40.785Z,19.20
2024-04-18T08:42:14.040Z,16.00
2024-04-18T08:44:46.055Z,15.80
2024-04-18T08:47:19.070Z,15.60
2024-04-18T08:49:53.152Z,15.70
2024-04-18T08:52:25.417Z,16.90
2024-04-18T08:54:57.251Z,13.80
2024-04-18T08:57:31.451Z,17.10
2024-04-18T09:00:06.528Z,12.10
2024-04-18T09:02:38.547Z,12.70
2024-04-18T09:05:11.243Z,12.60
2024-04-18T09:07:43.150Z,12.00
2024-04-18T09:10:17.157Z,11.60
2024-04-18T09:12:49.895Z,13.20
2024-04-18T09:15:23.901Z,13.20
2024-04-18T09:18:06.964Z,11.60
2024-04-18T09:20:40.800Z,11.50
2024-04-18T09:23:12.303Z,12.10
2024-04-18T09:25:45.944Z,11.90
2024-04-18T09:28:22.205Z,13.50
2024-04-18T09:30:57.344Z,13.50
2024-04-18T09:33:29.584Z,21.60
2024-04-18T09:36:02.738Z,24.60
2024-04-18T09:38:36.241Z,30.70
2024-04-18T09:41:13.654Z,26.70
2024-04-18T09:43:53.605Z,23.10
2024-04-18T09:46:27.461Z,15.10
2024-04-18T09:49:00.103Z,14.60
2024-04-18T09:51:32.311Z,18.00
2024-04-18T09:54:06.182Z,12.60
2024-04-18T09:56:39.620Z,12.40
2024-04-18T09:59:13.861Z,12.30
2024-04-18T10:01:46.062Z,13.90
2024-04-18T10:04:18.070Z,13.40
2024-04-18T10:06:51.614Z,10.40
2024-04-18T10:09:27.145Z,13.90
2024-04-18T10:11:58.977Z,9.70
2024-04-18T10:14:31.753Z,6.50
2024-04-18T10:17:04.652Z,5.90
2024-04-18T10:19:36.568Z,6.80
2024-04-18T10:22:24.008Z,4.40
2024-04-18T10:25:17.863Z,4.00
2024-04-18T10:27:50.080Z,4.50
2024-04-18T10:30:27.593Z,4.20
2024-04-18T10:32:59.425Z,5.00
2024-04-18T10:35:32.847Z,6.90
2024-04-18T10:38:05.002Z,5.90
2024-04-18T10:40:37.061Z,5.20
2024-04-18T10:43:17.530Z,5.00
2024-04-18T10:45:52.386Z,6.80
2024-04-18T10:48:24.886Z,5.60
2024-04-18T10:50:56.725Z,9.60
2024-04-18T10:53:29.703Z,7.40
2024-04-18T10:56:02.159Z,8.60
2024-04-18T10:58:33.876Z,10.50
2024-04-18T11:01:06.110Z,8.10
2024-04-18T11:03:38.021Z,13.70
2024-04-18T11:06:10.366Z,18.80
2024-04-18T11:08:42.047Z,7.70
2024-04-18T11:11:16.738Z,14.10
2024-04-18T11:13:50.632Z,25.40
2024-04-18T11:16:22.597Z,11.10
2024-04-18T11:18:54.371Z,8.20
2024-04-18T11:21:27.617Z,8.10
2024-04-18T11:23:59.895Z,9.50
2024-04-18T11:26:33.540Z,8.30
2024-04-18T11:29:05.229Z,5.70
2024-04-18T11:31:38.217Z,5.70
2024-04-18T11:34:10.206Z,4.70
2024-04-18T11:36:43.111Z,3.40
2024-04-18T11:39:15.678Z,7.00
2024-04-18T11:41:47.569Z,9.50
2024-04-18T11:44:19.242Z,14.80
2024-04-18T11:46:53.202Z,7.00
2024-04-18T11:49:24.984Z,5.00
2024-04-18T11:51:57.878Z,8.60
2024-04-18T11:54:29.729Z,10.30
2024-04-18T11:57:01.339Z,13.70
2024-04-18T11:59:41.288Z,9.10
2024-04-18T12:02:13.250Z,6.60
2024-04-18T12:04:57.083Z,23.20
2024-04-18T12:07:28.992Z,29.80
2024-04-18T12:10:00.883Z,43.00
2024-04-18T12:12:33.417Z,29.40
2024-04-18T12:15:25.124Z,12.20
2024-04-18T12:17:56.690Z,26.50
2024-04-18T12:20:28.561Z,19.60
2024-04-18T12:23:00.475Z,21.20
2024-04-18T12:25:32.257Z,20.30
2024-04-18T12:28:04.051Z,32.50
2024-04-18T12:30:36.226Z,27.50
2024-04-18T12:33:24.044Z,25.40
2024-04-18T12:35:56.179Z,21.00
2024-04-18T12:38:27.960Z,24.50
2024-04-18T12:41:06.292Z,51.50
2024-04-18T12:43:38.481Z,25.70
2024-04-18T12:46:29.516Z,27.20
2024-04-18T12:49:01.779Z,31.50
2024-04-18T12:51:35.884Z,22.10
2024-04-18T12:54:07.980Z,28.10
2024-04-18T12:56:52.082Z,10.30
2024-04-18T12:59:26.868Z,6.90
2024-04-18T13:01:58.567Z,5.10
2024-04-18T13:04:32.751Z,4.60
2024-04-18T13:07:05.239Z,5.50
2024-04-18T13:09:37.417Z,3.90
2024-04-18T13:12:09.715Z,8.00
2024-04-18T13:15:00.556Z,4.10
2024-04-18T13:17:32.354Z,3.20
2024-04-18T13:20:04.826Z,4.00
2024-04-18T13:22:36.831Z,7.20
2024-04-18T13:25:09.335Z,8.50
2024-04-18T13:27:44.676Z,6.30
2024-04-18T13:30:36.530Z,4.30
2024-04-18T13:33:08.634Z,6.80
2024-04-18T13:35:40.551Z,4.40
2024-04-18T13:38:12.370Z,4.30
2024-04-18T13:40:57.904Z,4.50
2024-04-18T13:43:37.523Z,3.70
2024-04-18T13:46:12.166Z,3.90
2024-04-18T13:49:04.356Z,4.10
2024-04-18T13:51:36.148Z,5.40
2024-04-18T13:54:27.814Z,4.90
2024-04-18T13:56:59.518Z,4.70
2024-04-18T13:59:50.650Z,11.90
2024-04-18T14:02:41.089Z,5.60
2024-04-18T14:05:21.659Z,4.70
2024-04-18T14:08:09.134Z,6.10
2024-04-18T14:10:40.588Z,5.30
2024-04-18T14:13:30.868Z,4.60
2024-04-18T14:16:20.737Z,5.40
2024-04-18T14:18:59.037Z,5.70
2024-04-18T14:21:39.981Z,5.60
2024-04-18T14:24:12.081Z,4.70
2024-04-18T14:27:02.000Z,8.30
2024-04-18T14:29:34.058Z,10.50
2024-04-18T14:32:06.489Z,9.70
2024-04-18T14:34:57.234Z,7.80
2024-04-18T14:37:29.527Z,7.10
2024-04-18T14:40:01.476Z,21.70
2024-04-18T14:42:33.235Z,34.20
2024-04-18T14:45:05.595Z,10.60
2024-04-18T14:47:37.307Z,8.40
2024-04-18T14:50:10.089Z,9.10
2024-04-18T14:52:41.777Z,12.80
2024-04-18T14:55:32.231Z,16.60
2024-04-18T14:58:06.974Z,24.00
2024-04-18T15:00:55.097Z,18.40
2024-04-18T15:03:27.443Z,15.80
2024-04-18T15:06:19.454Z,17.40
2024-04-18T15:09:11.550Z,8.40
2024-04-18T15:12:00.415Z,209.30
2024-04-18T15:14:44.309Z,40.50
2024-04-18T15:17:16.356Z,4.50
2024-04-18T15:19:48.100Z,4.60
2024-04-18T15:22:39.273Z,3.70
2024-04-18T15:25:29.057Z,4.00
2024-04-18T15:28:00.773Z,9.00
2024-04-18T15:30:32.590Z,10.80
2024-04-18T15:33:23.054Z,12.40
2024-04-18T15:35:55.340Z,17.50
2024-04-18T15:38:26.937Z,5.70
2024-04-18T15:41:17.079Z,6.40
2024-04-18T15:43:48.811Z,4.70
2024-04-18T15:46:38.978Z,3.80
2024-04-18T15:49:15.397Z,3.40
2024-04-18T15:51:50.498Z,3.90
2024-04-18T15:54:22.182Z,4.50
2024-04-18T15:56:53.835Z,4.90
2024-04-18T15:59:45.766Z,5.70
2024-04-18T16:02:17.319Z,4.40
2024-04-18T16:04:49.301Z,3.50
2024-04-18T16:07:20.997Z,3.70
2024-04-18T16:10:18.571Z,3.90
2024-04-18T16:12:59.349Z,2.90
2024-04-18T16:15:31.887Z,4.10
2024-04-18T16:18:07.705Z,3.60
2024-04-18T16:20:58.652Z,6.90
2024-04-18T16:23:43.694Z,4.00
2024-04-18T16:26:15.562Z,15.80
2024-04-18T16:28:47.057Z,15.00
2024-04-18T16:31:18.730Z,11.20
2024-04-18T16:33:50.262Z,9.30
2024-04-18T16:36:32.082Z,7.20
2024-04-18T16:39:12.959Z,7.30
2024-04-18T16:41:46.004Z,9.40
2024-04-18T16:44:18.935Z,40.90
2024-04-18T16:46:50.679Z,14.70
2024-04-18T16:49:22.481Z,9.50
2024-04-18T16:51:54.318Z,18.00
2024-04-18T16:54:31.488Z,11.40
2024-04-18T16:57:06.267Z,14.40
2024-04-18T16:59:50.405Z,8.50
2024-04-18T17:02:22.164Z,23.80
2024-04-18T17:04:54.111Z,33.70
2024-04-18T17:07:25.585Z,45.50
2024-04-18T17:10:16.242Z,99.50
2024-04-18T17:13:07.009Z,91.80
2024-04-18T17:16:05.805Z,180.50
2024-04-18T17:18:37.754Z,243.90
2024-04-18T17:21:09.495Z,146.50
2024-04-18T17:23:41.477Z,134.00
2024-04-18T17:26:13.673Z,200.40
2024-04-18T17:28:46.472Z,253.50
2024-04-18T17:31:39.069Z,292.40
2024-04-18T17:34:10.480Z,256.60
2024-04-18T17:36:48.303Z,223.00
2024-04-18T17:39:40.117Z,341.20
2024-04-18T17:42:11.841Z,460.60
2024-04-18T17:45:01.588Z,353.10
2024-04-18T17:47:36.133Z,146.40
2024-04-18T17:50:09.371Z,44.00
2024-04-18T17:52:45.340Z,71.40
2024-04-18T17:55:17.577Z,25.00
2024-04-18T17:57:49.243Z,8.50
2024-04-18T18:00:26.949Z,7.20
2024-04-18T18:02:58.910Z,8.70
2024-04-18T18:05:43.516Z,6.80
2024-04-18T18:08:33.606Z,7.30
2024-04-18T18:11:23.926Z,6.50
2024-04-18T18:13:58.455Z,7.30
2024-04-18T18:16:31.758Z,8.70
2024-04-18T18:19:03.582Z,7.00
2024-04-18T18:21:41.273Z,7.60
2024-04-18T18:24:15.917Z,6.40
2024-04-18T18:26:47.642Z,7.10
2024-04-18T18:29:19.484Z,8.80
2024-04-18T18:32:14.305Z,8.00
2024-04-18T18:34:48.110Z,9.40
2024-04-18T18:37:20.243Z,11.70
2024-04-18T18:40:13.457Z,9.40
2024-04-18T18:42:46.025Z,14.30
2024-04-18T18:45:17.839Z,11.20
2024-04-18T18:47:49.828Z,12.30
2024-04-18T18:50:24.970Z,12.50
2024-04-18T18:52:56.866Z,16.40
2024-04-18T18:55:46.834Z,17.30
2024-04-18T18:58:21.089Z,14.80
2024-04-18T19:00:52.844Z,15.30
2024-04-18T19:03:24.639Z,11.20
2024-04-18T19:05:56.238Z,11.40
2024-04-18T19:08:28.280Z,12.50
2024-04-18T19:11:02.666Z,12.10
2024-04-18T19:13:34.390Z,12.00
2024-04-18T19:16:06.558Z,17.10
2024-04-18T19:18:38.553Z,18.00
2024-04-18T19:21:10.441Z,17.60
2024-04-18T19:23:43.057Z,11.30
2024-04-18T19:26:14.659Z,12.60
2024-04-18T19:28:46.301Z,12.10
2024-04-18T19:31:20.098Z,10.30
2024-04-18T19:33:51.792Z,11.10
2024-04-18T19:36:24.079Z,12.50
2024-04-18T19:38:55.649Z,8.70
2024-04-18T19:41:30.294Z,6.90
2024-04-18T19:44:01.923Z,6.10
2024-04-18T19:46:33.609Z,5.60
2024-04-18T19:49:14.603Z,5.40
2024-04-18T19:52:02.627Z,6.20
2024-04-18T19:54:36.944Z,7.10
2024-04-18T19:57:09.225Z,4.60
2024-04-18T19:59:41.534Z,7.30
2024-04-18T20:02:14.496Z,8.70
2024-04-18T20:04:46.508Z,11.00
2024-04-18T20:07:18.280Z,8.70
2024-04-18T20:09:49.927Z,8.20
2024-04-18T20:12:21.832Z,8.70
2024-04-18T20:15:11.948Z,8.60
2024-04-18T20:17:44.191Z,8.60
2024-04-18T20:20:16.744Z,9.50
2024-04-18T20:22:48.700Z,7.90
2024-04-18T20:25:29.239Z,6.20
2024-04-18T20:28:00.866Z,11.20
2024-04-18T20:30:32.663Z,11.90
2024-04-18T20:33:10.521Z,8.80
2024-04-18T20:35:42.374Z,13.10
2024-04-18T20:38:13.788Z,14.80
2024-04-18T20:40:45.344Z,9.90
2024-04-18T20:43:16.835Z,9.30
2024-04-18T20:45:50.068Z,9.60
2024-04-18T20:48:21.815Z,6.20
2024-04-18T20:50:53.504Z,9.30
2024-04-18T20:53:25.147Z,9.90
2024-04-18T20:55:56.885Z,8.50
2024-04-18T20:58:28.541Z,8.30
2024-04-18T21:01:00.777Z,8.40
2024-04-18T21:03:32.741Z,9.00
2024-04-18T21:06:04.640Z,7.20
2024-04-18T21:08:36.617Z,9.00
2024-04-18T21:11:08.411Z,7.00
2024-04-18T21:13:40.012Z,9.60
2024-04-18T21:16:11.771Z,7.70
2024-04-18T21:18:43.463Z,5.80
2024-04-18T21:21:15.099Z,7.50
2024-04-18T21:23:46.763Z,8.00
2024-04-18T21:26:18.754Z,5.90
2024-04-18T21:28:51.408Z,6.00
2024-04-18T21:31:41.423Z,6.20
2024-04-18T21:34:14.036Z,8.00
2024-04-18T21:36:45.771Z,6.10
2024-04-18T21:39:17.500Z,7.00
2024-04-18T21:41:49.656Z,6.40
2024-04-18T21:44:21.634Z,6.30
2024-04-18T21:46:53.202Z,6.90
2024-04-18T21:49:25.487Z,6.00
2024-04-18T21:51:57.247Z,9.60
2024-04-18T21:54:29.262Z,8.70
2024-04-18T21:57:03.076Z,6.00
2024-04-18T21:59:36.508Z,7.60
2024-04-18T22:02:08.522Z,7.60
2024-04-18T22:04:40.075Z,6.70
2024-04-18T22:07:11.611Z,9.10
2024-04-18T22:09:43.301Z,9.60
2024-04-18T22:12:15.332Z,8.50
2024-04-18T22:14:47.016Z,8.50
2024-04-18T22:17:18.452Z,7.70
2024-04-18T22:19:50.225Z,8.90
2024-04-18T22:22:22.677Z,7.60
2024-04-18T22:24:54.308Z,6.90
2024-04-18T22:27:25.987Z,7.90
2024-04-18T22:29:57.649Z,7.30
2024-04-18T22:32:29.574Z,8.10
2024-04-18T22:35:01.489Z,7.50
2024-04-18T22:37:39.146Z,7.50
2024-04-18T22:40:12.061Z,9.00
2024-04-18T22:42:43.945Z,9.60
2024-04-18T22:45:15.604Z,8.60
2024-04-18T22:47:47.690Z,13.50
2024-04-18T22:50:19.200Z,12.00
2024-04-18T22:52:50.672Z,39.20
2024-04-18T22:55:22.462Z,42.60
2024-04-18T22:57:54.046Z,30.70
2024-04-18T23:00:25.928Z,21.90
2024-04-18T23:02:57.699Z,13.90
2024-04-18T23:05:42.024Z,9.40
2024-04-18T23:08:13.599Z,8.80
2024-04-18T23:10:46.043Z,9.70
2024-04-18T23:13:18.240Z,7.00
2024-04-18T23:15:49.759Z,10.20
2024-04-18T23:18:21.621Z,11.60
2024-04-18T23:20:55.369Z,9.30
2024-04-18T23:23:37.710Z,10.50
2024-04-18T23:26:09.185Z,11.60
2024-04-18T23:28:40.841Z,10.90
2024-04-18T23:31:12.603Z,12.40
2024-04-18T23:33:44.407Z,11.20
2024-04-18T23:36:16.178Z,11.60
2024-04-18T23:38:47.830Z,9.80
2024-04-18T23:41:19.425Z,8.80
2024-04-18T23:43:51.290Z,9.70
2024-04-18T23:46:22.924Z,9.50
2024-04-18T23:48:54.673Z,7.00
2024-04-18T23:51:26.586Z,6.30
2024-04-18T23:53:58.130Z,8.70
2024-04-18T23:56:29.731Z,7.40
2024-04-18T23:59:01.486Z,7.70
